PWSweather.com
Personal Weather Stations
Station Observations
KAZPHOEN90
RayThunderhill, Phoenix, AZ

RayThunderhillPhoenix, AZ

Lat: 33.312, Lon: -112.029

Elevation: 1260

Station Type: Davis Vantage VUE

High Low Average
Temperature 95.9°F35.5°F 66.7°F19.3°F 83.1°F28.4°F
Dew Point 45.7°F7.6°F 30.4°F-0.9°F 37.3°F2.9°F
Winds 3.1 mph NW5.0 mph NW Calm Calm 0.6 mph 1.0 mph
Wind Gusts 8.0 mph12.9 mph -- 1.4 mph2.3 mph
Humidity 42% 11% 21%
Pressure 29.82 in1009.80 in 29.70 in1005.80 in -
Precipitation 0.00 in0.00 in - -
Hour Temp Dew Point Humidity Winds Wind Gusts Pressure Precip Precip Rate Daily Precip Total
12:00 AM 79.7°F26.5°C 33.8°F1.0°C 19% 0.3 mph WSW0.5 kmh WSW 1.0 mph1.6 kmh 29.76 in1007.8 mb - 0.00 in0.0 mm 0.00 in0.0 mm
12:15 AM 80.4°F26.9°C 33.0°F0.6°C 18% Calm Calm 1.0 mph1.6 kmh 29.76 in1007.8 mb - 0.00 in0.0 mm 0.00 in0.0 mm
12:30 AM 80.6°F27.0°C 31.7°F-0.2°C 17% 0.3 mph WSW0.5 kmh WSW 2.0 mph3.2 kmh 29.75 in1007.5 mb - 0.00 in0.0 mm 0.00 in0.0 mm
12:45 AM 81.2°F27.3°C 32.2°F0.1°C 17% 1.0 mph W1.6 kmh W 3.0 mph4.8 kmh 29.76 in1007.8 mb - 0.00 in0.0 mm 0.00 in0.0 mm
01:00 AM 81.3°F27.4°C 32.3°F0.2°C 17% 1.3 mph W2.1 kmh W 3.0 mph4.8 kmh 29.76 in1007.8 mb - 0.00 in0.0 mm 0.00 in0.0 mm
01:15 AM 81.2°F27.3°C 32.2°F0.1°C 17% 1.7 mph W2.7 kmh W 2.0 mph3.2 kmh 29.76 in1007.8 mb - 0.00 in0.0 mm 0.00 in0.0 mm
01:30 AM 81.2°F27.3°C 32.2°F0.1°C 17% 0.4 mph WSW0.6 kmh WSW 1.0 mph1.6 kmh 29.76 in1007.8 mb - 0.00 in0.0 mm 0.00 in0.0 mm
01:45 AM 79.3°F26.3°C 38.2°F3.4°C 23% Calm Calm -- 29.76 in1007.8 mb - 0.00 in0.0 mm 0.00 in0.0 mm
02:00 AM 76.2°F24.6°C 39.8°F4.3°C 27% Calm Calm -- 29.76 in1007.8 mb - 0.00 in0.0 mm 0.00 in0.0 mm
02:15 AM 74.3°F23.5°C 40.9°F4.9°C 30% Calm Calm -- 29.76 in1007.8 mb - 0.00 in0.0 mm 0.00 in0.0 mm
02:30 AM 72.7°F22.6°C 41.1°F5.1°C 32% Calm Calm -- 29.77 in1008.1 mb - 0.00 in0.0 mm 0.00 in0.0 mm
02:45 AM 71.2°F21.8°C 42.1°F5.6°C 35% Calm Calm -- 29.77 in1008.1 mb - 0.00 in0.0 mm 0.00 in0.0 mm
03:00 AM 70.3°F21.3°C 42.1°F5.6°C 36% Calm Calm -- 29.77 in1008.1 mb - 0.00 in0.0 mm 0.00 in0.0 mm
03:15 AM 70.1°F21.2°C 41.2°F5.1°C 35% Calm Calm -- 29.78 in1008.5 mb - 0.00 in0.0 mm 0.00 in0.0 mm
03:30 AM 70.5°F21.4°C 40.0°F4.4°C 33% Calm Calm -- 29.78 in1008.5 mb - 0.00 in0.0 mm 0.00 in0.0 mm
03:45 AM 70.3°F21.3°C 39.9°F4.4°C 33% Calm Calm -- 29.78 in1008.5 mb - 0.00 in0.0 mm 0.00 in0.0 mm
04:00 AM 70.6°F21.4°C 39.3°F4.1°C 32% Calm Calm -- 29.78 in1008.5 mb - 0.00 in0.0 mm 0.00 in0.0 mm
04:15 AM 70.6°F21.4°C 38.5°F3.6°C 31% Calm Calm -- 29.78 in1008.5 mb - 0.00 in0.0 mm 0.00 in0.0 mm
04:30 AM 71.1°F21.7°C 38.9°F3.8°C 31% Calm Calm -- 29.77 in1008.1 mb - 0.00 in0.0 mm 0.00 in0.0 mm
04:45 AM 71.0°F21.7°C 38.8°F3.8°C 31% Calm Calm -- 29.78 in1008.5 mb - 0.00 in0.0 mm 0.00 in0.0 mm
05:00 AM 69.7°F20.9°C 40.1°F4.5°C 34% Calm Calm -- 29.78 in1008.5 mb - 0.00 in0.0 mm 0.00 in0.0 mm
05:15 AM 68.7°F20.4°C 40.0°F4.4°C 35% Calm Calm -- 29.78 in1008.5 mb - 0.00 in0.0 mm 0.00 in0.0 mm
05:30 AM 68.2°F20.1°C 40.9°F4.9°C 37% Calm Calm -- 29.79 in1008.8 mb - 0.00 in0.0 mm 0.00 in0.0 mm
05:45 AM 67.6°F19.8°C 41.8°F5.4°C 39% Calm Calm -- 29.79 in1008.8 mb - 0.00 in0.0 mm 0.00 in0.0 mm
06:00 AM 66.7°F19.3°C 42.9°F6.1°C 42% Calm Calm -- 29.80 in1009.1 mb - 0.00 in0.0 mm 0.00 in0.0 mm
06:15 AM 67.3°F19.6°C 42.8°F6.0°C 41% Calm Calm -- 29.80 in1009.1 mb - 0.00 in0.0 mm 0.00 in0.0 mm
06:30 AM 68.2°F20.1°C 42.3°F5.7°C 39% Calm Calm -- 29.80 in1009.1 mb - 0.00 in0.0 mm 0.00 in0.0 mm
06:45 AM 69.4°F20.8°C 43.4°F6.3°C 39% Calm Calm -- 29.81 in1009.5 mb - 0.00 in0.0 mm 0.00 in0.0 mm
07:00 AM 70.4°F21.3°C 44.9°F7.2°C 40% Calm Calm -- 29.81 in1009.5 mb - 0.00 in0.0 mm 0.00 in0.0 mm
07:15 AM 74.4°F23.6°C 45.7°F7.6°C 36% Calm Calm -- 29.81 in1009.5 mb - 0.00 in0.0 mm 0.00 in0.0 mm
07:30 AM 75.9°F24.4°C 44.8°F7.1°C 33% Calm Calm -- 29.81 in1009.5 mb - 0.00 in0.0 mm 0.00 in0.0 mm
07:45 AM 76.6°F24.8°C 41.9°F5.5°C 29% Calm Calm -- 29.81 in1009.5 mb - 0.00 in0.0 mm 0.00 in0.0 mm
08:00 AM 78.2°F25.7°C 41.5°F5.3°C 27% Calm Calm -- 29.82 in1009.8 mb - 0.00 in0.0 mm 0.00 in0.0 mm
08:15 AM 78.5°F25.8°C 39.7°F4.3°C 25% 0.5 mph SW0.8 kmh SW 1.0 mph1.6 kmh 29.82 in1009.8 mb - 0.00 in0.0 mm 0.00 in0.0 mm
08:30 AM 78.3°F25.7°C 40.6°F4.8°C 26% 0.2 mph S0.3 kmh S -- 29.82 in1009.8 mb - 0.00 in0.0 mm 0.00 in0.0 mm
08:45 AM 78.9°F26.1°C 40.1°F4.5°C 25% 0.4 mph SW0.6 kmh SW 1.0 mph1.6 kmh 29.82 in1009.8 mb - 0.00 in0.0 mm 0.00 in0.0 mm
09:00 AM 79.4°F26.3°C 41.5°F5.3°C 26% 0.2 mph SW0.3 kmh SW 2.0 mph3.2 kmh 29.82 in1009.8 mb - 0.00 in0.0 mm 0.00 in0.0 mm
09:15 AM 80.0°F26.7°C 41.1°F5.1°C 25% Calm Calm 1.0 mph1.6 kmh 29.82 in1009.8 mb - 0.00 in0.0 mm 0.00 in0.0 mm
09:30 AM 81.9°F27.7°C 40.4°F4.7°C 23% 0.1 mph SSW0.2 kmh SSW 1.0 mph1.6 kmh 29.82 in1009.8 mb - 0.00 in0.0 mm 0.00 in0.0 mm
09:45 AM 81.6°F27.6°C 42.4°F5.8°C 25% 0.5 mph SSE0.8 kmh SSE 2.0 mph3.2 kmh 29.82 in1009.8 mb - 0.00 in0.0 mm 0.00 in0.0 mm
10:00 AM 84.1°F28.9°C 41.1°F5.1°C 22% 0.3 mph WSW0.5 kmh WSW 1.0 mph1.6 kmh 29.82 in1009.8 mb - 0.00 in0.0 mm 0.00 in0.0 mm
10:15 AM 84.9°F29.4°C 40.6°F4.8°C 21% 0.9 mph SSW1.4 kmh SSW 2.0 mph3.2 kmh 29.82 in1009.8 mb - 0.00 in0.0 mm 0.00 in0.0 mm
10:30 AM 86.6°F30.3°C 40.7°F4.8°C 20% Calm Calm -- 29.82 in1009.8 mb - 0.00 in0.0 mm 0.00 in0.0 mm
10:45 AM 88.2°F31.2°C 39.4°F4.1°C 18% 0.1 mph W0.2 kmh W 1.0 mph1.6 kmh 29.82 in1009.8 mb - 0.00 in0.0 mm 0.00 in0.0 mm
11:00 AM 87.2°F30.7°C 39.9°F4.4°C 19% 1.6 mph S2.6 kmh S 4.0 mph6.4 kmh 29.82 in1009.8 mb - 0.00 in0.0 mm 0.00 in0.0 mm
11:15 AM 88.5°F31.4°C 39.6°F4.2°C 18% 1.7 mph W2.7 kmh W 4.0 mph6.4 kmh 29.81 in1009.5 mb - 0.00 in0.0 mm 0.00 in0.0 mm
11:30 AM 90.0°F32.2°C 39.3°F4.1°C 17% 0.3 mph S0.5 kmh S 1.0 mph1.6 kmh 29.80 in1009.1 mb - 0.00 in0.0 mm 0.00 in0.0 mm
11:45 AM 90.2°F32.3°C 41.0°F5.0°C 18% 1.4 mph S2.3 kmh S 3.0 mph4.8 kmh 29.80 in1009.1 mb - 0.00 in0.0 mm 0.00 in0.0 mm
12:00 PM 91.7°F33.2°C 39.1°F3.9°C 16% 0.4 mph NW0.6 kmh NW 3.0 mph4.8 kmh 29.80 in1009.1 mb - 0.00 in0.0 mm 0.00 in0.0 mm
12:15 PM 91.0°F32.8°C 38.6°F3.7°C 16% 2.1 mph SSE3.4 kmh SSE 2.0 mph3.2 kmh 29.79 in1008.8 mb - 0.00 in0.0 mm 0.00 in0.0 mm
12:30 PM 92.3°F33.5°C 39.6°F4.2°C 16% 0.5 mph SE0.8 kmh SE -- 29.79 in1008.8 mb - 0.00 in0.0 mm 0.00 in0.0 mm
12:45 PM 92.1°F33.4°C 39.5°F4.2°C 16% 0.3 mph SSE0.5 kmh SSE 2.0 mph3.2 kmh 29.78 in1008.5 mb - 0.00 in0.0 mm 0.00 in0.0 mm
01:00 PM 93.5°F34.2°C 35.2°F1.8°C 13% 0.8 mph WSW1.3 kmh WSW 1.0 mph1.6 kmh 29.77 in1008.1 mb - 0.00 in0.0 mm 0.00 in0.0 mm
01:15 PM 94.3°F34.6°C 33.9°F1.1°C 12% 2.6 mph SSE4.2 kmh SSE 5.0 mph8.0 kmh 29.77 in1008.1 mb - 0.00 in0.0 mm 0.00 in0.0 mm
01:30 PM 94.0°F34.4°C 33.7°F0.9°C 12% 1.3 mph SSE2.1 kmh SSE 2.0 mph3.2 kmh 29.76 in1007.8 mb - 0.00 in0.0 mm 0.00 in0.0 mm
01:45 PM 94.8°F34.9°C 32.1°F0.1°C 11% 2.5 mph S4.0 kmh S 3.0 mph4.8 kmh 29.76 in1007.8 mb - 0.00 in0.0 mm 0.00 in0.0 mm
02:00 PM 94.3°F34.6°C 33.9°F1.1°C 12% 1.0 mph SE1.6 kmh SE 3.0 mph4.8 kmh 29.75 in1007.5 mb - 0.00 in0.0 mm 0.00 in0.0 mm
02:15 PM 95.2°F35.1°C 36.6°F2.6°C 13% 1.8 mph W2.9 kmh W 5.0 mph8.0 kmh 29.74 in1007.1 mb - 0.00 in0.0 mm 0.00 in0.0 mm
02:30 PM 95.3°F35.2°C 34.6°F1.4°C 12% 1.5 mph SE2.4 kmh SE 3.0 mph4.8 kmh 29.74 in1007.1 mb - 0.00 in0.0 mm 0.00 in0.0 mm
02:45 PM 94.5°F34.7°C 34.1°F1.2°C 12% 0.1 mph WSW0.2 kmh WSW 2.0 mph3.2 kmh 29.73 in1006.8 mb - 0.00 in0.0 mm 0.00 in0.0 mm
03:00 PM 95.5°F35.3°C 34.8°F1.6°C 12% 3.0 mph SW4.8 kmh SW 7.0 mph11.3 kmh 29.73 in1006.8 mb - 0.00 in0.0 mm 0.00 in0.0 mm
03:15 PM 94.8°F34.9°C 34.3°F1.3°C 12% 2.5 mph WSW4.0 kmh WSW 8.0 mph12.9 kmh 29.72 in1006.4 mb - 0.00 in0.0 mm 0.00 in0.0 mm
03:30 PM 93.5°F34.2°C 35.3°F1.8°C 13% 1.9 mph WSW3.1 kmh WSW 2.0 mph3.2 kmh 29.71 in1006.1 mb - 0.00 in0.0 mm 0.00 in0.0 mm
03:45 PM 95.9°F35.5°C 35.2°F1.8°C 12% 0.5 mph SE0.8 kmh SE 2.0 mph3.2 kmh 29.71 in1006.1 mb - 0.00 in0.0 mm 0.00 in0.0 mm
04:00 PM 95.0°F35.0°C 34.4°F1.3°C 12% 0.7 mph S1.1 kmh S 3.0 mph4.8 kmh 29.71 in1006.1 mb - 0.00 in0.0 mm 0.00 in0.0 mm
04:15 PM 94.1°F34.5°C 35.7°F2.1°C 13% 1.5 mph SW2.4 kmh SW 4.0 mph6.4 kmh 29.71 in1006.1 mb - 0.00 in0.0 mm 0.00 in0.0 mm
04:30 PM 93.3°F34.1°C 37.0°F2.8°C 14% 2.3 mph NNW3.7 kmh NNW 4.0 mph6.4 kmh 29.71 in1006.1 mb - 0.00 in0.0 mm 0.00 in0.0 mm
04:45 PM 92.4°F33.6°C 38.0°F3.3°C 15% 2.3 mph NW3.7 kmh NW 3.0 mph4.8 kmh 29.70 in1005.8 mb - 0.00 in0.0 mm 0.00 in0.0 mm
05:00 PM 91.8°F33.2°C 39.2°F4.0°C 16% 1.3 mph W2.1 kmh W 4.0 mph6.4 kmh 29.70 in1005.8 mb - 0.00 in0.0 mm 0.00 in0.0 mm
05:15 PM 91.5°F33.1°C 37.4°F3.0°C 15% 3.1 mph NW5.0 kmh NW 4.0 mph6.4 kmh 29.70 in1005.8 mb - 0.00 in0.0 mm 0.00 in0.0 mm
05:30 PM 91.3°F32.9°C 38.8°F3.8°C 16% 1.3 mph NW2.1 kmh NW 2.0 mph3.2 kmh 29.70 in1005.8 mb - 0.00 in0.0 mm 0.00 in0.0 mm
05:45 PM 91.3°F32.9°C 37.2°F2.9°C 15% 0.8 mph NW1.3 kmh NW 4.0 mph6.4 kmh 29.70 in1005.8 mb - 0.00 in0.0 mm 0.00 in0.0 mm
06:00 PM 91.0°F32.8°C 38.6°F3.7°C 16% 0.4 mph NW0.6 kmh NW 1.0 mph1.6 kmh 29.70 in1005.8 mb - 0.00 in0.0 mm 0.00 in0.0 mm
06:15 PM 90.0°F32.2°C 39.3°F4.1°C 17% 1.5 mph WNW2.4 kmh WNW 2.0 mph3.2 kmh 29.70 in1005.8 mb - 0.00 in0.0 mm 0.00 in0.0 mm
06:30 PM 89.5°F31.9°C 39.0°F3.9°C 17% 1.6 mph W2.6 kmh W 3.0 mph4.8 kmh 29.70 in1005.8 mb - 0.00 in0.0 mm 0.00 in0.0 mm
06:45 PM 88.9°F31.6°C 38.4°F3.6°C 17% 1.5 mph NNW2.4 kmh NNW 3.0 mph4.8 kmh 29.70 in1005.8 mb - 0.00 in0.0 mm 0.00 in0.0 mm
07:00 PM 88.5°F31.4°C 36.6°F2.6°C 16% 0.6 mph NW1.0 kmh NW 1.0 mph1.6 kmh 29.70 in1005.8 mb - 0.00 in0.0 mm 0.00 in0.0 mm
07:15 PM 87.8°F31.0°C 36.0°F2.2°C 16% 0.7 mph NW1.1 kmh NW 1.0 mph1.6 kmh 29.70 in1005.8 mb - 0.00 in0.0 mm 0.00 in0.0 mm
07:30 PM 87.2°F30.7°C 32.2°F0.1°C 14% 0.6 mph NW1.0 kmh NW 3.0 mph4.8 kmh 29.71 in1006.1 mb - 0.00 in0.0 mm 0.00 in0.0 mm
07:45 PM 86.7°F30.4°C 31.8°F-0.1°C 14% 0.2 mph NW0.3 kmh NW -- 29.71 in1006.1 mb - 0.00 in0.0 mm 0.00 in0.0 mm
08:00 PM 85.9°F29.9°C 31.2°F-0.4°C 14% 0.1 mph NW0.2 kmh NW 2.0 mph3.2 kmh 29.72 in1006.4 mb - 0.00 in0.0 mm 0.00 in0.0 mm
08:15 PM 85.8°F29.9°C 31.1°F-0.5°C 14% Calm Calm -- 29.72 in1006.4 mb - 0.00 in0.0 mm 0.00 in0.0 mm
08:30 PM 85.4°F29.7°C 30.8°F-0.7°C 14% Calm Calm 1.0 mph1.6 kmh 29.72 in1006.4 mb - 0.00 in0.0 mm 0.00 in0.0 mm
08:45 PM 85.0°F29.4°C 30.4°F-0.9°C 14% 0.1 mph NW0.2 kmh NW 1.0 mph1.6 kmh 29.73 in1006.8 mb - 0.00 in0.0 mm 0.00 in0.0 mm
09:00 PM 84.3°F29.1°C 31.6°F-0.2°C 15% Calm Calm -- 29.74 in1007.1 mb - 0.00 in0.0 mm 0.00 in0.0 mm
09:15 PM 84.0°F28.9°C 31.3°F-0.4°C 15% Calm Calm -- 29.74 in1007.1 mb - 0.00 in0.0 mm 0.00 in0.0 mm
09:30 PM 84.4°F29.1°C 33.3°F0.7°C 16% Calm Calm -- 29.75 in1007.5 mb - 0.00 in0.0 mm 0.00 in0.0 mm
09:45 PM 84.1°F28.9°C 33.0°F0.6°C 16% Calm Calm -- 29.75 in1007.5 mb - 0.00 in0.0 mm 0.00 in0.0 mm
10:00 PM 84.1°F28.9°C 33.0°F0.6°C 16% Calm Calm -- 29.75 in1007.5 mb - 0.00 in0.0 mm 0.00 in0.0 mm
10:15 PM 83.8°F28.8°C 32.8°F0.4°C 16% 0.1 mph NW0.2 kmh NW 1.0 mph1.6 kmh 29.75 in1007.5 mb - 0.00 in0.0 mm 0.00 in0.0 mm
10:30 PM 83.6°F28.7°C 32.6°F0.3°C 16% Calm Calm -- 29.76 in1007.8 mb - 0.00 in0.0 mm 0.00 in0.0 mm
10:45 PM 82.2°F27.9°C 33.1°F0.6°C 17% Calm Calm -- 29.76 in1007.8 mb - 0.00 in0.0 mm 0.00 in0.0 mm
11:00 PM 82.1°F27.8°C 33.0°F0.6°C 17% 0.5 mph NW0.8 kmh NW 2.0 mph3.2 kmh 29.76 in1007.8 mb - 0.00 in0.0 mm 0.00 in0.0 mm
11:15 PM 82.7°F28.2°C 33.4°F0.8°C 17% Calm Calm -- 29.76 in1007.8 mb - 0.00 in0.0 mm 0.00 in0.0 mm
11:30 PM 82.4°F28.0°C 33.2°F0.7°C 17% Calm Calm -- 29.77 in1008.1 mb - 0.00 in0.0 mm 0.00 in0.0 mm
11:45 PM 82.1°F27.8°C 33.0°F0.6°C 17% Calm Calm -- 29.77 in1008.1 mb - 0.00 in0.0 mm 0.00 in0.0 mm